Weather at Reichdrill Heliport

Public forecast

Using degrees Fahrenheit for public forecast. Weather courtesy of forecast.io.

Closest aviation weather report (METAR) to Reichdrill Heliport

Closest report is Clearfield Lawrence Airport, 12.0 nm (22.3 km) NW. Retrieved 2021/01/18 15:07 UTC (13 minutes ago):

KFIG 181507Z AUTO 23008KT 190V250 3SM -SN OVC020 M01/M04 A2975 RMK AO2 P0000 T10111044

Closest aviation forecast (TAF) to Reichdrill Heliport

Closest forecast is University Park Airport, 17.6 nm (32.6 km) E. Retrieved 2021/01/18 12:30 UTC (3 hours ago):

TAF KUNV 181127Z 1812/1912 25007KT P6SM -SHSN SCT025 BKN035 TEMPO 1812/1813 2SM -SHSN SCT009 OVC015 FM181400 27010G20KT P6SM BKN035 FM190000 26008G15KT P6SM BKN035